Time;durP1;ratioP1;P1;durP2;ratioP2;P2;SDS_P1;SDS_P2;PMS_P1;PMS_P2;Temp;Humidity;BMP_temperature;BMP_pressure;BME280_temperature;BME280_humidity;BME280_pressure;Samples;Min_cycle;Max_cycle;Signal;HPM_P1;HPM_P2
2020/02/02 00:00:57;;;;;;;1.4;1.3;;;;;;;10.7;86.59473;94966.22;;;;
2020/02/02 00:01:58;;;;;;;1.4;1.3;;;;;;;10.7;86.59473;94966.22;;;;
2020/02/02 00:03:04;;;;;;;1.6;1.2;;;;;;;10.61;86.22363;94951.48;;;;
2020/02/02 00:04:18;;;;;;;1.6;1.2;;;;;;;10.61;86.22363;94951.48;;;;
2020/02/02 00:05:27;;;;;;;2.5;1.4;;;;;;;10.63;86.36621;94950.71;;;;
2020/02/02 00:06:28;;;;;;;2.5;1.4;;;;;;;10.63;86.36621;94950.71;;;;
2020/02/02 00:07:28;;;;;;;2.5;1.4;;;;;;;10.63;86.36621;94950.71;;;;
2020/02/02 00:08:31;;;;;;;2.5;1.4;;;;;;;10.63;86.36621;94950.71;;;;
2020/02/02 00:09:31;;;;;;;2.5;1.4;;;;;;;10.63;86.36621;94950.71;;;;
2020/02/02 00:10:32;;;;;;;2.5;1.4;;;;;;;10.63;86.36621;94950.71;;;;
2020/02/02 00:12:34;;;;;;;2.5;1.4;;;;;;;10.63;86.36621;94950.71;;;;
2020/02/02 00:13:44;;;;;;;2.5;1.4;;;;;;;10.63;86.36621;94950.71;;;;
2020/02/02 00:14:45;;;;;;;2.5;1.4;;;;;;;10.63;86.36621;94950.71;;;;
2020/02/02 00:15:45;;;;;;;2.3;1.15;;;;;;;10.56;86.07422;94952.34;;;;
2020/02/02 00:16:46;;;;;;;2.3;1.15;;;;;;;10.56;86.07422;94952.34;;;;
2020/02/02 00:17:46;;;;;;;2.3;1.15;;;;;;;10.56;86.07422;94952.34;;;;
2020/02/02 00:18:46;;;;;;;1.85;1.3;;;;;;;10.59;86.20801;94951.05;;;;
2020/02/02 00:19:47;;;;;;;1.85;1.3;;;;;;;10.59;86.20801;94951.05;;;;
2020/02/02 00:20:48;;;;;;;1.85;1.3;;;;;;;10.59;86.20801;94951.05;;;;
2020/02/02 00:21:49;;;;;;;1.85;1.3;;;;;;;10.59;86.20801;94951.05;;;;
2020/02/02 00:22:52;;;;;;;1.85;1.3;;;;;;;10.59;86.20801;94951.05;;;;
2020/02/02 00:23:52;;;;;;;1.85;1.3;;;;;;;10.59;86.20801;94951.05;;;;
2020/02/02 00:25:14;;;;;;;1.85;1.3;;;;;;;10.59;86.20801;94951.05;;;;
2020/02/02 00:31:35;;;;;;;1.55;1;;;;;;;10.39;86.14941;94967.19;;;;
2020/02/02 00:32:38;;;;;;;1.55;1;;;;;;;10.39;86.14941;94967.19;;;;
2020/02/02 00:33:39;;;;;;;1.55;1;;;;;;;10.39;86.14941;94967.19;;;;
2020/02/02 00:34:40;;;;;;;1.55;1;;;;;;;10.39;86.14941;94967.19;;;;
2020/02/02 00:35:41;;;;;;;1.55;1;;;;;;;10.39;86.14941;94967.19;;;;
2020/02/02 00:36:41;;;;;;;1.55;1;;;;;;;10.39;86.14941;94967.19;;;;
2020/02/02 00:37:41;;;;;;;1.55;1;;;;;;;10.39;86.14941;94967.19;;;;
2020/02/02 00:38:42;;;;;;;1.55;1;;;;;;;10.39;86.14941;94967.19;;;;
2020/02/02 00:39:44;;;;;;;1.55;1;;;;;;;10.39;86.14941;94967.19;;;;
2020/02/02 00:40:44;;;;;;;1.55;1;;;;;;;10.39;86.14941;94967.19;;;;
2020/02/02 00:41:44;;;;;;;1.55;1;;;;;;;10.39;86.14941;94967.19;;;;
2020/02/02 00:42:45;;;;;;;1.3;1.1;;;;;;;10.24;86.04492;94969.59;;;;
2020/02/02 00:43:46;;;;;;;1.3;1.1;;;;;;;10.24;86.04492;94969.59;;;;
2020/02/02 00:44:46;;;;;;;1;1;;;;;;;10.28;86.38281;94966.71;;;;
2020/02/02 00:45:47;;;;;;;1;1;;;;;;;10.28;86.38281;94966.71;;;;
2020/02/02 00:46:47;;;;;;;1;1;;;;;;;10.28;86.38281;94966.71;;;;
2020/02/02 00:47:48;;;;;;;1.6;1;;;;;;;10.39;86.13867;94940.3;;;;
2020/02/02 00:48:48;;;;;;;1.6;1;;;;;;;10.39;86.13867;94940.3;;;;
2020/02/02 00:49:49;;;;;;;1.6;1;;;;;;;10.39;86.13867;94940.3;;;;
2020/02/02 00:50:49;;;;;;;1.4;1.1;;;;;;;10.49;85.86914;94952.09;;;;
2020/02/02 00:51:49;;;;;;;1.4;1.1;;;;;;;10.49;85.86914;94952.09;;;;
2020/02/02 00:52:50;;;;;;;1.4;1.1;;;;;;;10.49;85.86914;94952.09;;;;
2020/02/02 00:53:50;;;;;;;1.4;1.1;;;;;;;10.49;85.86914;94952.09;;;;
2020/02/02 00:54:51;;;;;;;1.4;1.1;;;;;;;10.49;85.86914;94952.09;;;;
2020/02/02 00:55:51;;;;;;;1.4;1.1;;;;;;;10.49;85.86914;94952.09;;;;
2020/02/02 00:56:52;;;;;;;1.4;1.1;;;;;;;10.49;85.86914;94952.09;;;;
2020/02/02 00:57:52;;;;;;;1.4;1.1;;;;;;;10.49;85.86914;94952.09;;;;
2020/02/02 00:58:53;;;;;;;1.4;1.1;;;;;;;10.49;85.86914;94952.09;;;;
2020/02/02 00:59:53;;;;;;;1.4;1.1;;;;;;;10.49;85.86914;94952.09;;;;
2020/02/02 01:00:54;;;;;;;1.1;1;;;;;;;10.44;85.25293;94959.69;;;;
2020/02/02 01:01:56;;;;;;;1.1;1;;;;;;;10.44;85.25293;94959.69;;;;
2020/02/02 01:02:57;;;;;;;1.1;1;;;;;;;10.44;85.25293;94959.69;;;;
2020/02/02 01:04:00;;;;;;;1.1;0.95;;;;;;;10.49;85.27246;94956.67;;;;
2020/02/02 01:05:00;;;;;;;1.1;0.95;;;;;;;10.49;85.27246;94956.67;;;;
2020/02/02 01:06:01;;;;;;;1.1;0.95;;;;;;;10.49;85.27246;94956.67;;;;
2020/02/02 01:07:04;;;;;;;1.1;0.95;;;;;;;10.49;85.27246;94956.67;;;;
2020/02/02 01:08:05;;;;;;;1.1;0.95;;;;;;;10.49;85.27246;94956.67;;;;
2020/02/02 01:09:05;;;;;;;1.1;0.95;;;;;;;10.49;85.27246;94956.67;;;;
2020/02/02 01:10:07;;;;;;;1.1;0.95;;;;;;;10.49;85.27246;94956.67;;;;
2020/02/02 01:11:07;;;;;;;1.1;0.95;;;;;;;10.49;85.27246;94956.67;;;;
2020/02/02 01:12:09;;;;;;;1.1;0.95;;;;;;;10.49;85.27246;94956.67;;;;
2020/02/02 01:13:11;;;;;;;1.1;0.95;;;;;;;10.49;85.27246;94956.67;;;;
2020/02/02 01:14:11;;;;;;;1.1;1;;;;;;;10.55;84.30371;94990.27;;;;
2020/02/02 01:15:12;;;;;;;1.1;1;;;;;;;10.55;84.30371;94990.27;;;;
2020/02/02 01:16:12;;;;;;;1.1;1;;;;;;;10.55;84.30371;94990.27;;;;
2020/02/02 01:17:13;;;;;;;1.2;1.1;;;;;;;10.61;84.10156;94988.9;;;;
2020/02/02 01:18:13;;;;;;;1.2;1.1;;;;;;;10.61;84.10156;94988.9;;;;
2020/02/02 01:19:14;;;;;;;1.2;1.1;;;;;;;10.61;84.10156;94988.9;;;;
2020/02/02 01:20:16;;;;;;;1.2;1.1;;;;;;;10.61;84.10156;94988.9;;;;
2020/02/02 01:21:20;;;;;;;1.2;1.1;;;;;;;10.61;84.10156;94988.9;;;;
2020/02/02 01:22:20;;;;;;;1.2;1.1;;;;;;;10.61;84.10156;94988.9;;;;
2020/02/02 01:23:21;;;;;;;1.2;1.1;;;;;;;10.61;84.10156;94988.9;;;;
2020/02/02 01:24:27;;;;;;;1.2;1.1;;;;;;;10.61;84.10156;94988.9;;;;
2020/02/02 01:25:27;;;;;;;1.2;1.1;;;;;;;10.61;84.10156;94988.9;;;;
2020/02/02 01:31:36;;;;;;;1.6;1;;;;;;;10.75;82.75195;94995.62;;;;
2020/02/02 01:35:42;;;;;;;1.6;1;;;;;;;10.75;82.75195;94995.62;;;;
2020/02/02 01:36:48;;;;;;;1.6;1;;;;;;;10.75;82.75195;94995.62;;;;
2020/02/02 01:37:49;;;;;;;1.6;1;;;;;;;10.75;82.75195;94995.62;;;;
2020/02/02 01:38:49;;;;;;;1.6;1;;;;;;;10.75;82.75195;94995.62;;;;
2020/02/02 01:39:50;;;;;;;1.6;1;;;;;;;10.75;82.75195;94995.62;;;;
2020/02/02 01:40:52;;;;;;;0.9;0.9;;;;;;;10.76;81.98438;94986.03;;;;
2020/02/02 01:41:55;;;;;;;0.9;0.9;;;;;;;10.76;81.98438;94986.03;;;;
2020/02/02 01:42:56;;;;;;;1;1;;;;;;;10.81;81.91797;94995.59;;;;
2020/02/02 01:43:57;;;;;;;1;1;;;;;;;10.81;81.91797;94995.59;;;;
2020/02/02 01:45:03;;;;;;;1;1;;;;;;;10.81;81.91797;94995.59;;;;
2020/02/02 01:46:09;;;;;;;1;1;;;;;;;10.81;81.91797;94995.59;;;;
2020/02/02 01:47:21;;;;;;;1;1;;;;;;;10.81;81.91797;94995.59;;;;
2020/02/02 01:48:27;;;;;;;1;1;;;;;;;10.81;81.91797;94995.59;;;;
2020/02/02 01:49:27;;;;;;;1;1;;;;;;;10.81;81.91797;94995.59;;;;
2020/02/02 01:50:29;;;;;;;1;1;;;;;;;10.81;81.91797;94995.59;;;;
2020/02/02 01:51:30;;;;;;;1;1;;;;;;;10.81;81.91797;94995.59;;;;
2020/02/02 01:52:30;;;;;;;1;1;;;;;;;10.81;81.91797;94995.59;;;;
2020/02/02 01:53:32;;;;;;;1.9;1.2;;;;;;;10.81;81.33105;95023.95;;;;
2020/02/02 01:54:33;;;;;;;1.9;1.2;;;;;;;10.81;81.33105;95023.95;;;;
2020/02/02 01:55:35;;;;;;;1.9;1.2;;;;;;;10.81;81.33105;95023.95;;;;
2020/02/02 01:56:37;;;;;;;1.2;1.1;;;;;;;10.85;81.26465;95035.36;;;;
2020/02/02 01:57:38;;;;;;;1.2;1.1;;;;;;;10.85;81.26465;95035.36;;;;
2020/02/02 01:58:38;;;;;;;1.2;1.1;;;;;;;10.85;81.26465;95035.36;;;;
2020/02/02 01:59:39;;;;;;;1.2;1.1;;;;;;;10.85;81.26465;95035.36;;;;
2020/02/02 02:00:39;;;;;;;1.2;1.1;;;;;;;10.85;81.26465;95035.36;;;;
2020/02/02 02:05:54;;;;;;;1.2;1.1;;;;;;;10.85;81.26465;95035.36;;;;
2020/02/02 02:07:03;;;;;;;1.1;1;;;;;;;10.82;81.09766;95057.98;;;;
2020/02/02 02:08:04;;;;;;;1.1;1;;;;;;;10.82;81.09766;95057.98;;;;
2020/02/02 02:09:04;;;;;;;1.1;1;;;;;;;10.82;81.09766;95057.98;;;;
2020/02/02 02:10:39;;;;;;;1.25;1;;;;;;;10.84;81.51953;95071.13;;;;
2020/02/02 02:11:44;;;;;;;1.25;1;;;;;;;10.84;81.51953;95071.13;;;;
2020/02/02 02:12:45;;;;;;;1.25;1;;;;;;;10.84;81.51953;95071.13;;;;
2020/02/02 02:13:47;;;;;;;1.25;1;;;;;;;10.84;81.51953;95071.13;;;;
2020/02/02 02:14:49;;;;;;;1.25;1;;;;;;;10.84;81.51953;95071.13;;;;
2020/02/02 02:15:50;;;;;;;1.25;1;;;;;;;10.84;81.51953;95071.13;;;;
2020/02/02 02:16:53;;;;;;;1.25;1;;;;;;;10.84;81.51953;95071.13;;;;
2020/02/02 02:17:58;;;;;;;1.25;1;;;;;;;10.84;81.51953;95071.13;;;;
2020/02/02 02:18:59;;;;;;;1.25;1;;;;;;;10.84;81.51953;95071.13;;;;
2020/02/02 02:19:59;;;;;;;1.25;1;;;;;;;10.84;81.51953;95071.13;;;;
2020/02/02 02:21:00;;;;;;;1.25;1;;;;;;;10.84;81.51953;95071.13;;;;
2020/02/02 02:22:32;;;;;;;1.25;1;;;;;;;10.84;81.51953;95071.13;;;;
2020/02/02 02:23:33;;;;;;;2;1.1;;;;;;;10.48;83.75781;95077.33;;;;
2020/02/02 02:24:34;;;;;;;2;1.1;;;;;;;10.48;83.75781;95077.33;;;;
2020/02/02 02:25:35;;;;;;;2;1.1;;;;;;;10.48;83.75781;95077.33;;;;
2020/02/02 02:26:35;;;;;;;2;1.1;;;;;;;10.48;83.75781;95077.33;;;;
2020/02/02 02:27:36;;;;;;;2;1.1;;;;;;;10.48;83.75781;95077.33;;;;
2020/02/02 02:28:39;;;;;;;2;1.1;;;;;;;10.48;83.75781;95077.33;;;;
2020/02/02 02:29:41;;;;;;;2;1.1;;;;;;;10.48;83.75781;95077.33;;;;
2020/02/02 02:30:44;;;;;;;2;1.1;;;;;;;10.48;83.75781;95077.33;;;;
2020/02/02 02:31:45;;;;;;;2;1.1;;;;;;;10.48;83.75781;95077.33;;;;
2020/02/02 02:32:45;;;;;;;2;1.1;;;;;;;10.48;83.75781;95077.33;;;;
2020/02/02 02:33:47;;;;;;;1.1;1;;;;;;;10.03;84.54492;95071.8;;;;
2020/02/02 02:35:20;;;;;;;1.1;1;;;;;;;10.03;84.54492;95071.8;;;;
2020/02/02 02:36:20;;;;;;;1.7;0.9;;;;;;;9.97;85.87402;95064.23;;;;
2020/02/02 02:37:22;;;;;;;1.7;0.9;;;;;;;9.97;85.87402;95064.23;;;;
2020/02/02 02:40:23;;;;;;;1.7;0.9;;;;;;;9.97;85.87402;95064.23;;;;
2020/02/02 02:41:29;;;;;;;1.7;0.9;;;;;;;9.97;85.87402;95064.23;;;;
2020/02/02 02:42:29;;;;;;;1.7;0.9;;;;;;;9.97;85.87402;95064.23;;;;
2020/02/02 02:43:29;;;;;;;1.7;0.9;;;;;;;9.97;85.87402;95064.23;;;;
2020/02/02 02:44:30;;;;;;;1.7;0.9;;;;;;;9.97;85.87402;95064.23;;;;
2020/02/02 02:45:30;;;;;;;1.7;0.9;;;;;;;9.97;85.87402;95064.23;;;;
2020/02/02 02:51:44;;;;;;;1.7;1.2;;;;;;;9.62;88.27344;95080.16;;;;
2020/02/02 02:52:44;;;;;;;1.7;1.2;;;;;;;9.62;88.27344;95080.16;;;;
2020/02/02 02:53:45;;;;;;;1.7;1.2;;;;;;;9.62;88.27344;95080.16;;;;
2020/02/02 02:54:45;;;;;;;1.7;1.2;;;;;;;9.62;88.27344;95080.16;;;;
2020/02/02 02:55:46;;;;;;;1.7;1.2;;;;;;;9.62;88.27344;95080.16;;;;
2020/02/02 02:56:46;;;;;;;1.7;1.2;;;;;;;9.62;88.27344;95080.16;;;;
2020/02/02 02:57:46;;;;;;;1.7;1.2;;;;;;;9.62;88.27344;95080.16;;;;
2020/02/02 02:58:47;;;;;;;1.7;1.2;;;;;;;9.62;88.27344;95080.16;;;;
2020/02/02 02:59:47;;;;;;;1.7;1.2;;;;;;;9.62;88.27344;95080.16;;;;
2020/02/02 03:00:48;;;;;;;1.3;1.2;;;;;;;9.35;88.63477;95075.2;;;;
2020/02/02 03:04:04;;;;;;;1.3;1.2;;;;;;;9.35;88.63477;95075.2;;;;
2020/02/02 03:05:04;;;;;;;1.3;1.2;;;;;;;9.35;88.63477;95075.2;;;;
2020/02/02 03:06:07;;;;;;;1.3;1.2;;;;;;;9.35;88.63477;95075.2;;;;
2020/02/02 03:07:07;;;;;;;1.3;1.2;;;;;;;9.35;88.63477;95075.2;;;;
2020/02/02 03:08:08;;;;;;;1.3;1.2;;;;;;;9.35;88.63477;95075.2;;;;
2020/02/02 03:09:09;;;;;;;1.3;1.2;;;;;;;9.35;88.63477;95075.2;;;;
2020/02/02 03:10:10;;;;;;;1.3;1.2;;;;;;;9.35;88.63477;95075.2;;;;
2020/02/02 03:11:11;;;;;;;1.35;1.2;;;;;;;9.18;89.53418;95072.51;;;;
2020/02/02 03:12:12;;;;;;;1.35;1.2;;;;;;;9.18;89.53418;95072.51;;;;
2020/02/02 03:13:13;;;;;;;1.35;1.2;;;;;;;9.18;89.53418;95072.51;;;;
2020/02/02 03:14:14;;;;;;;1.35;1.2;;;;;;;9.18;89.53418;95072.51;;;;
2020/02/02 03:15:15;;;;;;;1.35;1.2;;;;;;;9.18;89.53418;95072.51;;;;
2020/02/02 03:16:15;;;;;;;1.35;1.2;;;;;;;9.18;89.53418;95072.51;;;;
2020/02/02 03:17:17;;;;;;;1.35;1.2;;;;;;;9.18;89.53418;95072.51;;;;
2020/02/02 03:18:17;;;;;;;1.35;1.2;;;;;;;9.18;89.53418;95072.51;;;;
2020/02/02 03:19:18;;;;;;;1.35;1.2;;;;;;;9.18;89.53418;95072.51;;;;
2020/02/02 03:20:18;;;;;;;1.35;1.2;;;;;;;9.18;89.53418;95072.51;;;;
2020/02/02 03:21:19;;;;;;;2.2;1.2;;;;;;;9.05;90.37793;95066.91;;;;
2020/02/02 03:22:19;;;;;;;2.2;1.2;;;;;;;9.05;90.37793;95066.91;;;;
2020/02/02 03:23:20;;;;;;;2.2;1.2;;;;;;;9.05;90.37793;95066.91;;;;
2020/02/02 03:24:20;;;;;;;2.2;1.2;;;;;;;9.05;90.37793;95066.91;;;;
2020/02/02 03:25:21;;;;;;;2.2;1.2;;;;;;;9.05;90.37793;95066.91;;;;
2020/02/02 03:26:21;;;;;;;2.2;1.2;;;;;;;9.05;90.37793;95066.91;;;;
2020/02/02 03:27:22;;;;;;;2.2;1.2;;;;;;;9.05;90.37793;95066.91;;;;
2020/02/02 03:28:22;;;;;;;2.2;1.2;;;;;;;9.05;90.37793;95066.91;;;;
2020/02/02 03:29:23;;;;;;;2.2;1.2;;;;;;;9.05;90.37793;95066.91;;;;
2020/02/02 03:30:25;;;;;;;2.2;1.2;;;;;;;9.05;90.37793;95066.91;;;;
2020/02/02 03:31:31;;;;;;;2.2;1.2;;;;;;;9.05;90.37793;95066.91;;;;
2020/02/02 03:33:07;;;;;;;1.95;1;;;;;;;9.08;90.88184;95068.65;;;;
2020/02/02 03:34:18;;;;;;;1.95;1;;;;;;;9.08;90.88184;95068.65;;;;
2020/02/02 03:35:24;;;;;;;1.95;1;;;;;;;9.08;90.88184;95068.65;;;;
2020/02/02 03:36:29;;;;;;;1.95;1;;;;;;;9.08;90.88184;95068.65;;;;
2020/02/02 03:37:30;;;;;;;1.95;1;;;;;;;9.08;90.88184;95068.65;;;;
2020/02/02 03:38:30;;;;;;;1.95;1;;;;;;;9.08;90.88184;95068.65;;;;
2020/02/02 03:39:31;;;;;;;1.95;1;;;;;;;9.08;90.88184;95068.65;;;;
2020/02/02 03:40:31;;;;;;;1.95;1;;;;;;;9.08;90.88184;95068.65;;;;
2020/02/02 03:41:32;;;;;;;1.95;1;;;;;;;9.08;90.88184;95068.65;;;;
2020/02/02 03:42:33;;;;;;;2.1;1;;;;;;;9;90.53613;95088.34;;;;
2020/02/02 03:43:33;;;;;;;2.1;1;;;;;;;9;90.53613;95088.34;;;;
2020/02/02 03:44:36;;;;;;;2.1;1;;;;;;;9;90.53613;95088.34;;;;
2020/02/02 03:45:39;;;;;;;2.1;1;;;;;;;9;90.53613;95088.34;;;;
2020/02/02 03:46:45;;;;;;;2.1;1;;;;;;;9;90.53613;95088.34;;;;
2020/02/02 03:47:46;;;;;;;2.1;1;;;;;;;9;90.53613;95088.34;;;;
2020/02/02 03:48:59;;;;;;;2.1;1;;;;;;;9;90.53613;95088.34;;;;
2020/02/02 03:50:06;;;;;;;2.1;1;;;;;;;9;90.53613;95088.34;;;;
2020/02/02 03:51:06;;;;;;;2.1;1;;;;;;;9;90.53613;95088.34;;;;
2020/02/02 03:52:13;;;;;;;2.1;1;;;;;;;9;90.53613;95088.34;;;;
2020/02/02 03:53:24;;;;;;;2.150001;1.3;;;;;;;9.13;90.57129;95082.34;;;;
2020/02/02 03:54:26;;;;;;;2.150001;1.3;;;;;;;9.13;90.57129;95082.34;;;;
2020/02/02 03:55:33;;;;;;;2.150001;1.3;;;;;;;9.13;90.57129;95082.34;;;;
2020/02/02 03:56:41;;;;;;;2.150001;1.3;;;;;;;9.13;90.57129;95082.34;;;;
2020/02/02 03:57:45;;;;;;;2.150001;1.3;;;;;;;9.13;90.57129;95082.34;;;;
2020/02/02 03:58:58;;;;;;;2.150001;1.3;;;;;;;9.13;90.57129;95082.34;;;;
2020/02/02 04:00:08;;;;;;;2.150001;1.3;;;;;;;9.13;90.57129;95082.34;;;;
2020/02/02 04:01:13;;;;;;;2.150001;1.3;;;;;;;9.13;90.57129;95082.34;;;;
2020/02/02 04:02:15;;;;;;;2.150001;1.3;;;;;;;9.13;90.57129;95082.34;;;;
2020/02/02 04:03:16;;;;;;;2.150001;1.3;;;;;;;9.13;90.57129;95082.34;;;;
2020/02/02 04:04:17;;;;;;;1.25;1.15;;;;;;;9.24;90.09668;95090.03;;;;
2020/02/02 04:05:18;;;;;;;1.25;1.15;;;;;;;9.24;90.09668;95090.03;;;;
2020/02/02 04:06:18;;;;;;;1.25;1.15;;;;;;;9.24;90.09668;95090.03;;;;
2020/02/02 04:07:19;;;;;;;1.25;1.15;;;;;;;9.24;90.09668;95090.03;;;;
2020/02/02 04:08:21;;;;;;;1.25;1.15;;;;;;;9.24;90.09668;95090.03;;;;
2020/02/02 04:09:21;;;;;;;1.25;1.15;;;;;;;9.24;90.09668;95090.03;;;;
2020/02/02 04:10:26;;;;;;;1.25;1.15;;;;;;;9.24;90.09668;95090.03;;;;
2020/02/02 04:11:27;;;;;;;1.25;1.15;;;;;;;9.24;90.09668;95090.03;;;;
2020/02/02 04:13:00;;;;;;;1.25;1.15;;;;;;;9.24;90.09668;95090.03;;;;
2020/02/02 04:14:10;;;;;;;1.25;1.15;;;;;;;9.24;90.09668;95090.03;;;;
2020/02/02 04:18:58;;;;;;;1.2;1.1;;;;;;;9.3;90.16309;95073.75;;;;
2020/02/02 04:19:58;;;;;;;1.2;1.1;;;;;;;9.3;90.16309;95073.75;;;;
2020/02/02 04:21:02;;;;;;;1.2;1.1;;;;;;;9.3;90.16309;95073.75;;;;
2020/02/02 04:22:03;;;;;;;1.2;1.1;;;;;;;9.3;90.16309;95073.75;;;;
2020/02/02 04:23:20;;;;;;;1.2;1.1;;;;;;;9.3;90.16309;95073.75;;;;
2020/02/02 04:24:21;;;;;;;1.2;1.1;;;;;;;9.3;90.16309;95073.75;;;;
2020/02/02 04:25:22;;;;;;;1.25;1.1;;;;;;;9.27;89.99805;95109.77;;;;
2020/02/02 04:26:22;;;;;;;1.25;1.1;;;;;;;9.27;89.99805;95109.77;;;;
2020/02/02 04:27:22;;;;;;;1.25;1.1;;;;;;;9.27;89.99805;95109.77;;;;
2020/02/02 04:28:23;;;;;;;1.25;1.1;;;;;;;9.27;89.99805;95109.77;;;;
2020/02/02 04:29:23;;;;;;;1.25;1.1;;;;;;;9.27;89.99805;95109.77;;;;
2020/02/02 04:30:24;;;;;;;1.25;1.1;;;;;;;9.27;89.99805;95109.77;;;;
2020/02/02 04:31:24;;;;;;;1.25;1.1;;;;;;;9.27;89.99805;95109.77;;;;
2020/02/02 04:32:25;;;;;;;1.25;1.1;;;;;;;9.27;89.99805;95109.77;;;;
2020/02/02 04:33:25;;;;;;;1.25;1.1;;;;;;;9.27;89.99805;95109.77;;;;
2020/02/02 04:34:26;;;;;;;1.25;1.1;;;;;;;9.27;89.99805;95109.77;;;;
2020/02/02 04:35:26;;;;;;;1.6;1;;;;;;;9.24;89.80957;95115.63;;;;
2020/02/02 04:36:26;;;;;;;1.6;1;;;;;;;9.24;89.80957;95115.63;;;;
2020/02/02 04:37:27;;;;;;;1.6;1;;;;;;;9.24;89.80957;95115.63;;;;
2020/02/02 04:38:27;;;;;;;1.6;1;;;;;;;9.24;89.80957;95115.63;;;;
2020/02/02 04:39:28;;;;;;;1.6;1;;;;;;;9.24;89.80957;95115.63;;;;
2020/02/02 04:40:29;;;;;;;1.6;1;;;;;;;9.24;89.80957;95115.63;;;;
2020/02/02 04:41:29;;;;;;;1.6;1;;;;;;;9.24;89.80957;95115.63;;;;
2020/02/02 04:42:30;;;;;;;1.6;1;;;;;;;9.24;89.80957;95115.63;;;;
2020/02/02 04:43:30;;;;;;;1.6;1;;;;;;;9.24;89.80957;95115.63;;;;
2020/02/02 04:44:31;;;;;;;1.6;1;;;;;;;9.24;89.80957;95115.63;;;;
2020/02/02 04:45:31;;;;;;;1.6;1;;;;;;;9.24;89.80957;95115.63;;;;
2020/02/02 04:46:32;;;;;;;1.35;0.9;;;;;;;9.12;89.67969;95137.27;;;;
2020/02/02 04:47:32;;;;;;;1.35;0.9;;;;;;;9.12;89.67969;95137.27;;;;
2020/02/02 04:48:33;;;;;;;1.35;0.9;;;;;;;9.12;89.67969;95137.27;;;;
2020/02/02 04:49:33;;;;;;;1.35;0.9;;;;;;;9.12;89.67969;95137.27;;;;
2020/02/02 04:50:34;;;;;;;1.35;0.9;;;;;;;9.12;89.67969;95137.27;;;;
2020/02/02 04:51:34;;;;;;;1.35;0.9;;;;;;;9.12;89.67969;95137.27;;;;
2020/02/02 04:52:35;;;;;;;1.35;0.9;;;;;;;9.12;89.67969;95137.27;;;;
2020/02/02 04:53:36;;;;;;;1.35;0.9;;;;;;;9.12;89.67969;95137.27;;;;
2020/02/02 04:54:37;;;;;;;1.35;0.9;;;;;;;9.12;89.67969;95137.27;;;;
2020/02/02 04:55:37;;;;;;;1.35;0.9;;;;;;;9.12;89.67969;95137.27;;;;
2020/02/02 04:56:38;;;;;;;1;0.9;;;;;;;9.17;89.63672;95138.73;;;;
2020/02/02 04:57:38;;;;;;;1;0.9;;;;;;;9.17;89.63672;95138.73;;;;
2020/02/02 04:58:39;;;;;;;1;0.9;;;;;;;9.17;89.63672;95138.73;;;;
2020/02/02 04:59:39;;;;;;;1;0.9;;;;;;;9.17;89.63672;95138.73;;;;
2020/02/02 05:00:39;;;;;;;1;0.9;;;;;;;9.17;89.63672;95138.73;;;;
2020/02/02 05:01:40;;;;;;;1;0.9;;;;;;;9.17;89.63672;95138.73;;;;
2020/02/02 05:02:40;;;;;;;1;0.9;;;;;;;9.17;89.63672;95138.73;;;;
2020/02/02 05:03:41;;;;;;;1;0.9;;;;;;;9.17;89.63672;95138.73;;;;
2020/02/02 05:04:41;;;;;;;1;0.9;;;;;;;9.17;89.63672;95138.73;;;;
2020/02/02 05:05:42;;;;;;;1;0.9;;;;;;;9.17;89.63672;95138.73;;;;
2020/02/02 05:06:43;;;;;;;1;0.9;;;;;;;9.17;89.63672;95138.73;;;;
2020/02/02 05:07:43;;;;;;;1.2;0.9;;;;;;;9.16;89.33984;95125.78;;;;
2020/02/02 05:08:43;;;;;;;1.2;0.9;;;;;;;9.16;89.33984;95125.78;;;;
2020/02/02 05:09:44;;;;;;;1.2;0.9;;;;;;;9.16;89.33984;95125.78;;;;
2020/02/02 05:10:44;;;;;;;1.2;0.9;;;;;;;9.16;89.33984;95125.78;;;;
2020/02/02 05:11:45;;;;;;;1.2;0.9;;;;;;;9.16;89.33984;95125.78;;;;
2020/02/02 05:12:45;;;;;;;1.2;0.9;;;;;;;9.16;89.33984;95125.78;;;;
2020/02/02 05:13:46;;;;;;;1.2;0.9;;;;;;;9.16;89.33984;95125.78;;;;
2020/02/02 05:14:46;;;;;;;1.2;0.9;;;;;;;9.16;89.33984;95125.78;;;;
2020/02/02 05:15:47;;;;;;;1.2;0.9;;;;;;;9.16;89.33984;95125.78;;;;
2020/02/02 05:16:47;;;;;;;1.2;0.9;;;;;;;9.16;89.33984;95125.78;;;;
2020/02/02 05:17:48;;;;;;;1.4;0.9;;;;;;;9.2;89.14355;95130.19;;;;
2020/02/02 05:18:48;;;;;;;1.4;0.9;;;;;;;9.2;89.14355;95130.19;;;;
2020/02/02 05:19:48;;;;;;;1.4;0.9;;;;;;;9.2;89.14355;95130.19;;;;
2020/02/02 05:20:49;;;;;;;1.4;0.9;;;;;;;9.2;89.14355;95130.19;;;;
2020/02/02 05:21:49;;;;;;;1.4;0.9;;;;;;;9.2;89.14355;95130.19;;;;
2020/02/02 05:22:50;;;;;;;1.4;0.9;;;;;;;9.2;89.14355;95130.19;;;;
2020/02/02 05:23:50;;;;;;;1.4;0.9;;;;;;;9.2;89.14355;95130.19;;;;
2020/02/02 05:24:51;;;;;;;1.4;0.9;;;;;;;9.2;89.14355;95130.19;;;;
2020/02/02 05:25:51;;;;;;;1.4;0.9;;;;;;;9.2;89.14355;95130.19;;;;
2020/02/02 05:26:52;;;;;;;1.4;0.9;;;;;;;9.2;89.14355;95130.19;;;;
2020/02/02 05:27:52;;;;;;;1.4;0.9;;;;;;;9.2;89.14355;95130.19;;;;
2020/02/02 05:28:52;;;;;;;1.8;0.9;;;;;;;9.09;88.76172;95140.3;;;;
2020/02/02 05:29:53;;;;;;;1.8;0.9;;;;;;;9.09;88.76172;95140.3;;;;
2020/02/02 05:30:53;;;;;;;1.8;0.9;;;;;;;9.09;88.76172;95140.3;;;;
2020/02/02 05:31:54;;;;;;;1.8;0.9;;;;;;;9.09;88.76172;95140.3;;;;
2020/02/02 05:32:54;;;;;;;1.8;0.9;;;;;;;9.09;88.76172;95140.3;;;;
2020/02/02 05:33:55;;;;;;;1.8;0.9;;;;;;;9.09;88.76172;95140.3;;;;
2020/02/02 05:34:55;;;;;;;1.8;0.9;;;;;;;9.09;88.76172;95140.3;;;;
2020/02/02 05:35:55;;;;;;;1.8;0.9;;;;;;;9.09;88.76172;95140.3;;;;
2020/02/02 05:36:56;;;;;;;1.8;0.9;;;;;;;9.09;88.76172;95140.3;;;;
2020/02/02 05:37:56;;;;;;;1.8;0.9;;;;;;;9.09;88.76172;95140.3;;;;
2020/02/02 05:38:57;;;;;;;1.1;1;;;;;;;9.14;88.7627;95149.44;;;;
2020/02/02 05:39:57;;;;;;;1.1;1;;;;;;;9.14;88.7627;95149.44;;;;
2020/02/02 05:40:58;;;;;;;1.1;1;;;;;;;9.14;88.7627;95149.44;;;;
2020/02/02 05:41:58;;;;;;;1.1;1;;;;;;;9.14;88.7627;95149.44;;;;
2020/02/02 05:42:59;;;;;;;1.1;1;;;;;;;9.14;88.7627;95149.44;;;;
2020/02/02 05:43:59;;;;;;;1.1;1;;;;;;;9.14;88.7627;95149.44;;;;
2020/02/02 05:44:59;;;;;;;1.1;1;;;;;;;9.14;88.7627;95149.44;;;;
2020/02/02 05:46:00;;;;;;;1.1;1;;;;;;;9.14;88.7627;95149.44;;;;
2020/02/02 05:47:00;;;;;;;1.1;1;;;;;;;9.14;88.7627;95149.44;;;;
2020/02/02 05:48:01;;;;;;;1.1;1;;;;;;;9.14;88.7627;95149.44;;;;
2020/02/02 05:49:01;;;;;;;1.1;1;;;;;;;9.14;88.7627;95149.44;;;;
2020/02/02 05:50:02;;;;;;;1;0.8;;;;;;;9.23;88.29102;95124.22;;;;
2020/02/02 05:51:02;;;;;;;1;0.8;;;;;;;9.23;88.29102;95124.22;;;;
2020/02/02 05:52:03;;;;;;;1;0.8;;;;;;;9.23;88.29102;95124.22;;;;
2020/02/02 05:53:03;;;;;;;1;0.8;;;;;;;9.23;88.29102;95124.22;;;;
2020/02/02 05:54:04;;;;;;;1;0.8;;;;;;;9.23;88.29102;95124.22;;;;
2020/02/02 05:55:04;;;;;;;1;0.8;;;;;;;9.23;88.29102;95124.22;;;;
2020/02/02 05:56:05;;;;;;;1;0.8;;;;;;;9.23;88.29102;95124.22;;;;
2020/02/02 05:57:05;;;;;;;1;0.8;;;;;;;9.23;88.29102;95124.22;;;;
2020/02/02 05:58:06;;;;;;;1;0.8;;;;;;;9.23;88.29102;95124.22;;;;
2020/02/02 05:59:06;;;;;;;1;0.8;;;;;;;9.23;88.29102;95124.22;;;;
2020/02/02 06:00:07;;;;;;;1;0.8;;;;;;;9.23;88.29102;95124.22;;;;
2020/02/02 06:01:07;;;;;;;1.5;1;;;;;;;9.24;88.1543;95128.16;;;;
2020/02/02 06:02:08;;;;;;;1.5;1;;;;;;;9.24;88.1543;95128.16;;;;
2020/02/02 06:03:08;;;;;;;1.5;1;;;;;;;9.24;88.1543;95128.16;;;;
2020/02/02 06:04:08;;;;;;;1.5;1;;;;;;;9.24;88.1543;95128.16;;;;
2020/02/02 06:05:09;;;;;;;1.5;1;;;;;;;9.24;88.1543;95128.16;;;;
2020/02/02 06:06:09;;;;;;;1.5;1;;;;;;;9.24;88.1543;95128.16;;;;
2020/02/02 06:07:10;;;;;;;1.5;1;;;;;;;9.24;88.1543;95128.16;;;;
2020/02/02 06:08:10;;;;;;;1.5;1;;;;;;;9.24;88.1543;95128.16;;;;
2020/02/02 06:09:11;;;;;;;1.5;1;;;;;;;9.24;88.1543;95128.16;;;;
2020/02/02 06:10:12;;;;;;;1.5;1;;;;;;;9.24;88.1543;95128.16;;;;
2020/02/02 06:11:12;;;;;;;2.05;0.9;;;;;;;9.15;88.06152;95125.51;;;;
2020/02/02 06:12:13;;;;;;;2.05;0.9;;;;;;;9.15;88.06152;95125.51;;;;
2020/02/02 06:13:13;;;;;;;2.05;0.9;;;;;;;9.15;88.06152;95125.51;;;;
2020/02/02 06:14:14;;;;;;;2.05;0.9;;;;;;;9.15;88.06152;95125.51;;;;
2020/02/02 06:15:14;;;;;;;2.05;0.9;;;;;;;9.15;88.06152;95125.51;;;;
2020/02/02 06:16:15;;;;;;;2.05;0.9;;;;;;;9.15;88.06152;95125.51;;;;
2020/02/02 06:17:15;;;;;;;2.05;0.9;;;;;;;9.15;88.06152;95125.51;;;;
2020/02/02 06:18:15;;;;;;;2.05;0.9;;;;;;;9.15;88.06152;95125.51;;;;
2020/02/02 06:19:16;;;;;;;2.05;0.9;;;;;;;9.15;88.06152;95125.51;;;;
2020/02/02 06:20:16;;;;;;;2.05;0.9;;;;;;;9.15;88.06152;95125.51;;;;
2020/02/02 06:21:17;;;;;;;2.05;0.9;;;;;;;9.15;88.06152;95125.51;;;;
2020/02/02 06:22:17;;;;;;;1.05;0.8;;;;;;;9.26;88.12695;95148.96;;;;
2020/02/02 06:23:18;;;;;;;1.05;0.8;;;;;;;9.26;88.12695;95148.96;;;;
2020/02/02 06:24:18;;;;;;;1.05;0.8;;;;;;;9.26;88.12695;95148.96;;;;
2020/02/02 06:25:19;;;;;;;1.05;0.8;;;;;;;9.26;88.12695;95148.96;;;;
2020/02/02 06:26:19;;;;;;;1.05;0.8;;;;;;;9.26;88.12695;95148.96;;;;
2020/02/02 06:27:20;;;;;;;1.05;0.8;;;;;;;9.26;88.12695;95148.96;;;;
2020/02/02 06:28:20;;;;;;;1.05;0.8;;;;;;;9.26;88.12695;95148.96;;;;
2020/02/02 06:29:21;;;;;;;1.05;0.8;;;;;;;9.26;88.12695;95148.96;;;;
2020/02/02 06:30:21;;;;;;;1.05;0.8;;;;;;;9.26;88.12695;95148.96;;;;
2020/02/02 06:31:21;;;;;;;1.05;0.8;;;;;;;9.26;88.12695;95148.96;;;;
2020/02/02 06:32:22;;;;;;;1.1;1;;;;;;;9.39;87.68555;95145.1;;;;
2020/02/02 06:33:22;;;;;;;1.1;1;;;;;;;9.39;87.68555;95145.1;;;;
2020/02/02 06:34:23;;;;;;;1.1;1;;;;;;;9.39;87.68555;95145.1;;;;
2020/02/02 06:35:23;;;;;;;1.1;1;;;;;;;9.39;87.68555;95145.1;;;;
2020/02/02 06:36:23;;;;;;;1.1;1;;;;;;;9.39;87.68555;95145.1;;;;
2020/02/02 06:37:24;;;;;;;1.1;1;;;;;;;9.39;87.68555;95145.1;;;;
2020/02/02 06:38:24;;;;;;;1.1;1;;;;;;;9.39;87.68555;95145.1;;;;
2020/02/02 06:39:25;;;;;;;1.1;1;;;;;;;9.39;87.68555;95145.1;;;;
2020/02/02 06:40:25;;;;;;;1.1;1;;;;;;;9.39;87.68555;95145.1;;;;